createdAt,value
2023-04-17T00:01:16.727Z,98821.78
2023-04-17T00:03:48.717Z,98815.88
2023-04-17T00:06:21.074Z,98816.16
2023-04-17T00:08:53.733Z,98809.13
2023-04-17T00:11:26.800Z,98816.34
2023-04-17T00:13:58.732Z,98811.88
2023-04-17T00:16:31.075Z,98816.59
2023-04-17T00:19:03.104Z,98807.38
2023-04-17T00:21:35.418Z,98802.00
2023-04-17T00:24:07.661Z,98802.66
2023-04-17T00:26:40.760Z,98804.69
2023-04-17T00:29:12.855Z,98801.47
2023-04-17T00:31:45.505Z,98797.53
2023-04-17T00:34:17.424Z,98798.91
2023-04-17T00:36:49.677Z,98801.56
2023-04-17T00:39:21.673Z,98793.56
2023-04-17T00:41:53.971Z,98789.50
2023-04-17T00:44:26.341Z,98796.16
2023-04-17T00:46:59.074Z,98787.00
2023-04-17T00:49:31.423Z,98787.59
2023-04-17T00:52:03.888Z,98791.56
2023-04-17T00:54:36.410Z,98791.47
2023-04-17T00:57:08.721Z,98781.50
2023-04-17T00:59:41.479Z,98782.88
2023-04-17T01:02:13.975Z,98779.56
2023-04-17T01:04:46.338Z,98776.22
2023-04-17T01:07:19.154Z,98780.19
2023-04-17T01:09:51.110Z,98776.22
2023-04-17T01:12:25.005Z,98776.13
2023-04-17T01:14:57.824Z,98770.34
2023-04-17T01:17:31.290Z,98769.69
2023-04-17T01:20:07.271Z,98765.13
2023-04-17T01:22:39.861Z,98773.69
2023-04-17T01:25:11.954Z,98771.75
2023-04-17T01:27:45.193Z,98766.34
2023-04-17T01:30:17.140Z,98769.53
2023-04-17T01:32:58.376Z,98764.38
2023-04-17T01:35:30.396Z,98766.97
2023-04-17T01:38:03.787Z,98767.09
2023-04-17T01:40:36.007Z,98765.09
2023-04-17T01:43:09.191Z,98773.59
2023-04-17T01:45:41.533Z,98763.75
2023-04-17T01:48:14.544Z,98766.19
2023-04-17T01:50:46.747Z,98769.59
2023-04-17T01:53:19.387Z,98767.72
2023-04-17T01:55:52.143Z,98767.81
2023-04-17T01:58:24.860Z,98764.47
2023-04-17T02:00:57.243Z,98772.38
2023-04-17T02:03:29.942Z,98765.19
2023-04-17T02:06:02.386Z,98758.47
2023-04-17T02:08:34.999Z,98757.72
2023-04-17T02:11:10.420Z,98755.84
2023-04-17T02:13:42.311Z,98751.13
2023-04-17T02:16:14.944Z,98759.75
2023-04-17T02:18:48.392Z,98755.13
2023-04-17T02:21:21.602Z,98755.03
2023-04-17T02:23:53.873Z,98745.72
2023-04-17T02:26:26.474Z,98742.56
2023-04-17T02:28:58.393Z,98748.59
2023-04-17T02:31:31.664Z,98750.66
2023-04-17T02:34:03.582Z,98747.31
2023-04-17T02:36:36.708Z,98749.97
2023-04-17T02:39:09.072Z,98753.31
2023-04-17T02:41:42.050Z,98748.69
2023-04-17T02:44:14.646Z,98744.16
2023-04-17T02:46:47.630Z,98741.50
2023-04-17T02:49:19.959Z,98745.50
2023-04-17T02:51:52.985Z,98744.78
2023-04-17T02:54:24.948Z,98739.59
2023-04-17T02:56:58.881Z,98733.66
2023-04-17T02:59:31.013Z,98736.19
2023-04-17T03:02:04.572Z,98748.56
2023-04-17T03:04:38.742Z,98743.47
2023-04-17T03:07:11.550Z,98736.88
2023-04-17T03:09:47.145Z,98744.09
2023-04-17T03:12:20.195Z,98736.78
2023-04-17T03:14:52.260Z,98741.47
2023-04-17T03:17:24.938Z,98736.78
2023-04-17T03:19:57.440Z,98743.38
2023-04-17T03:22:30.083Z,98746.09
2023-04-17T03:25:02.804Z,98744.63
2023-04-17T03:27:41.821Z,98742.56
2023-04-17T03:30:15.030Z,98743.78
2023-04-17T03:32:51.373Z,98741.16
2023-04-17T03:35:25.234Z,98743.31
2023-04-17T03:37:57.159Z,98741.78
2023-04-17T03:40:30.700Z,98748.19
2023-04-17T03:43:04.362Z,98746.56
2023-04-17T03:45:38.061Z,98748.00
2023-04-17T03:48:10.456Z,98744.66
2023-04-17T03:50:44.161Z,98743.38
2023-04-17T03:53:16.507Z,98741.31
2023-04-17T03:55:49.280Z,98737.50
2023-04-17T03:58:29.927Z,98735.31
2023-04-17T04:01:03.741Z,98731.28
2023-04-17T04:03:39.967Z,98737.06
2023-04-17T04:06:12.629Z,98743.78
2023-04-17T04:08:45.363Z,98738.53
2023-04-17T04:11:18.264Z,98741.78
2023-04-17T04:13:50.347Z,98740.53
2023-04-17T04:16:23.036Z,98740.09
2023-04-17T04:18:58.424Z,98744.16
2023-04-17T04:21:31.414Z,98746.72
2023-04-17T04:24:03.398Z,98745.44
2023-04-17T04:26:37.258Z,98746.78
2023-04-17T04:29:09.929Z,98750.75
2023-04-17T04:31:53.659Z,98746.81
2023-04-17T04:34:30.215Z,98741.56
2023-04-17T04:37:02.207Z,98748.72
2023-04-17T04:39:43.465Z,98754.66
2023-04-17T04:42:22.977Z,98757.97
2023-04-17T04:45:07.385Z,98759.28
2023-04-17T04:47:41.184Z,98756.09
2023-04-17T04:50:13.873Z,98754.06
2023-04-17T04:52:46.041Z,98752.09
2023-04-17T04:55:35.905Z,98757.91
2023-04-17T04:58:07.826Z,98759.41
2023-04-17T05:00:43.918Z,98765.22
2023-04-17T05:03:22.470Z,98767.94
2023-04-17T05:05:56.161Z,98769.25
2023-04-17T05:08:33.306Z,98764.69
2023-04-17T05:11:14.841Z,98766.50
2023-04-17T05:13:47.602Z,98765.97
2023-04-17T05:16:28.753Z,98762.00
2023-04-17T05:19:01.572Z,98757.47
2023-04-17T05:21:50.642Z,98758.81
2023-04-17T05:24:25.725Z,98772.00
2023-04-17T05:26:58.191Z,98772.72
2023-04-17T05:29:30.899Z,98766.78
2023-04-17T05:32:04.527Z,98773.22
2023-04-17T05:34:56.680Z,98775.09
2023-04-17T05:37:31.678Z,98773.69
2023-04-17T05:40:06.918Z,98768.47
2023-04-17T05:42:39.414Z,98771.81
2023-04-17T05:45:15.405Z,98768.69
2023-04-17T05:47:47.790Z,98775.84
2023-04-17T05:50:20.503Z,98773.94
2023-04-17T05:52:52.752Z,98773.34
2023-04-17T05:55:28.103Z,98781.84
2023-04-17T05:58:07.996Z,98778.69
2023-04-17T06:00:56.366Z,98777.31
2023-04-17T06:03:29.470Z,98789.16
2023-04-17T06:06:11.104Z,98782.81
2023-04-17T06:08:43.397Z,98786.06
2023-04-17T06:11:17.490Z,98793.25
2023-04-17T06:13:51.933Z,98792.13
2023-04-17T06:16:24.957Z,98783.09
2023-04-17T06:18:56.854Z,98788.44
2023-04-17T06:21:29.478Z,98794.31
2023-04-17T06:24:06.513Z,98789.84
2023-04-17T06:26:39.090Z,98793.94
2023-04-17T06:29:13.905Z,98792.94
2023-04-17T06:31:47.102Z,98795.00
2023-04-17T06:34:22.170Z,98790.28
2023-04-17T06:36:55.217Z,98783.28
2023-04-17T06:39:27.600Z,98787.25
2023-04-17T06:42:00.767Z,98797.69
2023-04-17T06:44:33.274Z,98792.47
2023-04-17T06:47:06.954Z,98794.38
2023-04-17T06:49:43.022Z,98797.25
2023-04-17T06:52:20.513Z,98785.06
2023-04-17T06:54:54.896Z,98796.28
2023-04-17T06:57:27.888Z,98794.47
2023-04-17T06:59:59.981Z,98795.19
2023-04-17T07:02:32.729Z,98801.13
2023-04-17T07:05:08.474Z,98793.34
2023-04-17T07:07:41.524Z,98797.25
2023-04-17T07:10:16.265Z,98802.50
2023-04-17T07:12:48.192Z,98799.97
2023-04-17T07:15:21.043Z,98805.88
2023-04-17T07:17:52.947Z,98805.25
2023-04-17T07:20:25.569Z,98809.28
2023-04-17T07:22:57.468Z,98800.78
2023-04-17T07:25:30.090Z,98804.41
2023-04-17T07:28:04.408Z,98806.53
2023-04-17T07:30:37.677Z,98808.50
2023-04-17T07:33:10.287Z,98802.00
2023-04-17T07:35:43.751Z,98804.13
2023-04-17T07:38:16.059Z,98801.53
2023-04-17T07:40:48.628Z,98814.03
2023-04-17T07:43:20.899Z,98805.47
2023-04-17T07:45:54.012Z,98809.34
2023-04-17T07:48:27.306Z,98806.13
2023-04-17T07:51:03.371Z,98806.22
2023-04-17T07:53:36.221Z,98808.22
2023-04-17T07:56:08.507Z,98804.34
2023-04-17T07:58:40.394Z,98810.91
2023-04-17T08:01:13.968Z,98797.97
2023-04-17T08:03:46.194Z,98804.56
2023-04-17T08:06:19.215Z,98805.25
2023-04-17T08:08:51.116Z,98804.56
2023-04-17T08:11:23.834Z,98808.53
2023-04-17T08:13:55.894Z,98813.81
2023-04-17T08:16:28.378Z,98809.84
2023-04-17T08:19:00.538Z,98814.47
2023-04-17T08:21:33.237Z,98814.47
2023-04-17T08:24:05.854Z,98818.44
2023-04-17T08:26:38.453Z,98812.53
2023-04-17T08:29:10.521Z,98812.53
2023-04-17T08:31:43.647Z,98817.22
2023-04-17T08:34:15.843Z,98811.31
2023-04-17T08:36:48.490Z,98808.69
2023-04-17T08:39:20.668Z,98808.06
2023-04-17T08:42:03.213Z,98803.47
2023-04-17T08:44:35.730Z,98812.66
2023-04-17T08:47:09.730Z,98809.50
2023-04-17T08:49:43.770Z,98809.31
2023-04-17T08:52:17.161Z,98813.28
2023-04-17T08:54:51.364Z,98815.31
2023-04-17T08:57:24.183Z,98812.66
2023-04-17T08:59:56.320Z,98809.97
2023-04-17T09:02:28.747Z,98809.38
2023-04-17T09:05:01.753Z,98814.56
2023-04-17T09:07:34.585Z,98805.91
2023-04-17T09:10:07.041Z,98805.31
2023-04-17T09:12:42.097Z,98804.00
2023-04-17T09:15:17.956Z,98808.19
2023-04-17T09:17:50.884Z,98801.00
2023-04-17T09:20:22.963Z,98797.09
2023-04-17T09:23:05.704Z,98798.41
2023-04-17T09:25:37.955Z,98797.78
2023-04-17T09:28:13.717Z,98810.22
2023-04-17T09:30:46.822Z,98804.94
2023-04-17T09:33:18.692Z,98800.28
2023-04-17T09:35:51.436Z,98805.63
2023-04-17T09:38:39.964Z,98793.81
2023-04-17T09:41:27.926Z,98801.13
2023-04-17T09:44:01.889Z,98801.81
2023-04-17T09:46:39.152Z,98805.09
2023-04-17T09:49:42.680Z,98797.63
2023-04-17T09:52:15.951Z,98790.97
2023-04-17T09:54:49.236Z,98801.09
2023-04-17T09:59:57.745Z,98798.31
2023-04-17T10:02:29.938Z,98785.81
2023-04-17T10:05:04.933Z,98793.84
2023-04-17T10:07:37.889Z,98789.91
2023-04-17T10:10:13.717Z,98787.94
2023-04-17T10:12:49.469Z,98790.56
2023-04-17T10:15:23.916Z,98783.28
2023-04-17T10:18:23.662Z,98792.56
2023-04-17T10:20:57.156Z,98789.88
2023-04-17T10:23:34.830Z,98785.81
2023-04-17T10:26:25.831Z,98773.91
2023-04-17T10:28:58.175Z,98781.88
2023-04-17T10:32:09.052Z,98780.50
2023-04-17T10:34:43.884Z,98777.88
2023-04-17T10:37:17.446Z,98772.59
2023-04-17T10:39:56.729Z,98771.25
2023-04-17T10:42:30.598Z,98769.91
2023-04-17T10:45:05.232Z,98773.94
2023-04-17T10:47:39.317Z,98764.72
2023-04-17T10:50:11.318Z,98768.06
2023-04-17T10:52:45.748Z,98767.41
2023-04-17T10:55:23.567Z,98766.75
2023-04-17T10:58:05.799Z,98767.41
2023-04-17T11:00:50.002Z,98764.72
2023-04-17T11:03:26.926Z,98765.38
2023-04-17T11:06:00.575Z,98764.69
2023-04-17T11:08:32.569Z,98770.66
2023-04-17T11:11:05.279Z,98777.97
2023-04-17T11:13:37.623Z,98773.34
2023-04-17T11:16:10.209Z,98768.75
2023-04-17T11:18:45.970Z,98775.34
2023-04-17T11:21:19.252Z,98772.03
2023-04-17T11:23:55.028Z,98758.78
2023-04-17T11:26:27.676Z,98763.34
2023-04-17T11:29:01.042Z,98755.19
2023-04-17T11:31:33.798Z,98763.56
2023-04-17T11:34:08.350Z,98754.13
2023-04-17T11:36:41.087Z,98758.56
2023-04-17T11:39:15.754Z,98751.94
2023-04-17T11:44:21.015Z,98749.63
2023-04-17T11:46:59.238Z,98752.56
2023-04-17T11:49:33.470Z,98748.59
2023-04-17T11:52:06.422Z,98755.25
2023-04-17T11:54:38.623Z,98751.97
2023-04-17T11:57:15.079Z,98753.34
2023-04-17T11:59:46.990Z,98760.72
2023-04-17T12:02:33.980Z,98762.06
2023-04-17T12:05:18.357Z,98760.75
2023-04-17T12:08:06.330Z,98756.75
2023-04-17T12:10:44.808Z,98751.31
2023-04-17T12:13:16.684Z,98742.56
2023-04-17T12:15:49.976Z,98745.75
2023-04-17T12:18:22.308Z,98738.50
2023-04-17T12:20:55.400Z,98739.81
2023-04-17T12:23:27.270Z,98730.81
2023-04-17T12:25:59.917Z,98727.69
2023-04-17T12:28:31.840Z,98712.75
2023-04-17T12:31:05.360Z,98717.34
2023-04-17T12:33:37.695Z,98711.47
2023-04-17T12:36:10.494Z,98707.84
2023-04-17T12:38:43.112Z,98698.88
2023-04-17T12:41:15.803Z,98701.56
2023-04-17T12:43:47.717Z,98703.16
2023-04-17T12:46:20.795Z,98711.22
2023-04-17T12:48:59.183Z,98705.94
2023-04-17T12:51:37.948Z,98699.13
2023-04-17T12:54:10.299Z,98691.59
2023-04-17T12:56:43.262Z,98685.81
2023-04-17T12:59:15.254Z,98688.47
2023-04-17T13:01:47.861Z,98688.69
2023-04-17T13:04:20.173Z,98681.03
2023-04-17T13:06:54.896Z,98667.69
2023-04-17T13:09:26.804Z,98668.84
2023-04-17T13:11:59.073Z,98664.88
2023-04-17T13:14:30.976Z,98670.69
2023-04-17T13:17:04.214Z,98684.16
2023-04-17T13:19:36.832Z,98688.22
2023-04-17T13:22:09.327Z,98687.94
2023-04-17T13:24:41.897Z,98697.31
2023-04-17T13:27:14.947Z,98700.69
2023-04-17T13:29:46.794Z,98699.00
2023-04-17T13:32:19.418Z,98705.03
2023-04-17T13:34:52.044Z,98705.69
2023-04-17T13:37:24.527Z,98699.81
2023-04-17T13:39:57.135Z,98704.44
2023-04-17T13:42:29.023Z,98695.63
2023-04-17T13:45:01.601Z,98692.75
2023-04-17T13:47:33.548Z,98694.72
2023-04-17T13:50:07.150Z,98694.66
2023-04-17T13:52:39.122Z,98694.44
2023-04-17T13:55:14.827Z,98701.31
2023-04-17T13:57:47.301Z,98695.78
2023-04-17T14:00:22.359Z,98692.13
2023-04-17T14:02:54.341Z,98686.59
2023-04-17T14:05:27.048Z,98663.09
2023-04-17T14:07:59.100Z,98674.59
2023-04-17T14:10:31.358Z,98682.22
2023-04-17T14:13:03.281Z,98683.69
2023-04-17T14:15:36.009Z,98670.94
2023-04-17T14:18:09.737Z,98672.00
2023-04-17T14:20:42.435Z,98668.88
2023-04-17T14:23:14.377Z,98661.06
2023-04-17T14:25:47.315Z,98662.13
2023-04-17T14:28:21.015Z,98660.81
2023-04-17T14:30:53.518Z,98650.44
2023-04-17T14:33:25.684Z,98659.06
2023-04-17T14:35:58.673Z,98656.84
2023-04-17T14:38:30.716Z,98654.34
2023-04-17T14:41:03.559Z,98647.53
2023-04-17T14:43:35.630Z,98638.41
2023-04-17T14:46:08.277Z,98638.63
2023-04-17T14:48:54.264Z,98635.38
2023-04-17T14:51:30.222Z,98638.63
2023-04-17T14:54:03.402Z,98637.16
2023-04-17T14:56:35.324Z,98641.16
2023-04-17T14:59:07.722Z,98648.59
2023-04-17T15:01:39.668Z,98644.09
2023-04-17T15:04:12.796Z,98651.41
2023-04-17T15:06:45.021Z,98642.88
2023-04-17T15:09:17.283Z,98651.06
2023-04-17T15:11:49.235Z,98631.81
2023-04-17T15:14:22.214Z,98646.97
2023-04-17T15:16:54.246Z,98639.16
2023-04-17T15:19:26.972Z,98629.78
2023-04-17T15:21:58.848Z,98635.13
2023-04-17T15:24:32.230Z,98632.47
2023-04-17T15:27:04.171Z,98648.59
2023-04-17T15:29:37.183Z,98656.13
2023-04-17T15:32:09.550Z,98654.84
2023-04-17T15:34:42.182Z,98658.88
2023-04-17T15:37:14.118Z,98660.41
2023-04-17T15:39:46.823Z,98653.78
2023-04-17T15:42:18.765Z,98662.44
2023-04-17T15:44:51.419Z,98662.00
2023-04-17T15:47:23.827Z,98669.94
2023-04-17T15:49:56.518Z,98655.13
2023-04-17T15:52:28.861Z,98665.78
2023-04-17T15:55:01.900Z,98661.13
2023-04-17T15:57:33.857Z,98658.50
2023-04-17T16:00:07.645Z,98655.19
2023-04-17T16:02:42.742Z,98662.56
2023-04-17T16:05:19.010Z,98661.94
2023-04-17T16:07:51.384Z,98656.59
2023-04-17T16:10:24.169Z,98665.09
2023-04-17T16:12:56.484Z,98665.75
2023-04-17T16:15:29.111Z,98655.88
2023-04-17T16:18:02.478Z,98656.63
2023-04-17T16:20:35.365Z,98647.84
2023-04-17T16:23:08.088Z,98650.81
2023-04-17T16:25:40.366Z,98665.03
2023-04-17T16:28:13.048Z,98663.81
2023-04-17T16:30:45.042Z,98669.81
2023-04-17T16:33:17.671Z,98670.59
2023-04-17T16:35:49.990Z,98675.22
2023-04-17T16:38:23.099Z,98671.97
2023-04-17T16:40:57.072Z,98672.00
2023-04-17T16:43:33.555Z,98664.81
2023-04-17T16:46:14.319Z,98674.03
2023-04-17T16:48:51.548Z,98671.94
2023-04-17T16:51:26.985Z,98663.91
2023-04-17T16:54:00.764Z,98665.31
2023-04-17T16:56:33.259Z,98670.06
2023-04-17T16:59:06.191Z,98692.63
2023-04-17T17:01:38.157Z,98690.72
2023-04-17T17:04:10.930Z,98694.69
2023-04-17T17:06:43.322Z,98699.94
2023-04-17T17:09:16.093Z,98712.47
2023-04-17T17:11:48.684Z,98715.72
2023-04-17T17:14:21.390Z,98712.38
2023-04-17T17:16:53.797Z,98714.97
2023-04-17T17:19:27.111Z,98716.91
2023-04-17T17:21:59.046Z,98724.09
2023-04-17T17:24:31.759Z,98726.78
2023-04-17T17:27:04.081Z,98726.72
2023-04-17T17:29:36.636Z,98734.00
2023-04-17T17:32:09.294Z,98730.75
2023-04-17T17:34:41.982Z,98734.72
2023-04-17T17:37:14.261Z,98730.72
2023-04-17T17:39:47.239Z,98735.34
2023-04-17T17:42:19.527Z,98733.25
2023-04-17T17:44:52.535Z,98731.97
2023-04-17T17:47:24.473Z,98735.84
2023-04-17T17:49:57.514Z,98743.06
2023-04-17T17:52:29.402Z,98743.56
2023-04-17T17:55:02.273Z,98744.22
2023-04-17T17:57:45.998Z,98744.78
2023-04-17T18:00:21.360Z,98740.06
2023-04-17T18:02:53.508Z,98747.31
2023-04-17T18:05:26.340Z,98752.50
2023-04-17T18:07:58.396Z,98753.81
2023-04-17T18:10:30.721Z,98749.22
2023-04-17T18:13:03.200Z,98744.59
2023-04-17T18:15:36.679Z,98750.47
2023-04-17T18:18:08.734Z,98758.97
2023-04-17T18:20:41.364Z,98753.75
2023-04-17T18:23:13.224Z,98764.28
2023-04-17T18:25:45.881Z,98752.41
2023-04-17T18:28:18.146Z,98752.94
2023-04-17T18:30:50.872Z,98755.50
2023-04-17T18:33:22.943Z,98749.50
2023-04-17T18:35:55.931Z,98754.34
2023-04-17T18:38:27.829Z,98746.72
2023-04-17T18:41:01.488Z,98754.63
2023-04-17T18:43:33.443Z,98753.19
2023-04-17T18:46:08.086Z,98753.09
2023-04-17T18:48:40.978Z,98754.44
2023-04-17T18:51:14.741Z,98757.06
2023-04-17T18:53:47.451Z,98752.34
2023-04-17T18:56:19.828Z,98744.50
2023-04-17T18:58:53.295Z,98755.63
2023-04-17T19:01:25.168Z,98756.78
2023-04-17T19:03:57.768Z,98759.84
2023-04-17T19:06:31.131Z,98761.19
2023-04-17T19:09:04.088Z,98763.16
2023-04-17T19:11:36.205Z,98767.69
2023-04-17T19:14:09.210Z,98756.47
2023-04-17T19:16:41.597Z,98756.47
2023-04-17T19:19:14.537Z,98759.78
2023-04-17T19:21:46.556Z,98765.56
2023-04-17T19:24:19.610Z,98762.44
2023-04-17T19:26:51.539Z,98755.75
2023-04-17T19:29:24.582Z,98756.44
2023-04-17T19:31:56.539Z,98761.72
2023-04-17T19:34:29.610Z,98763.63
2023-04-17T19:37:01.534Z,98763.63
2023-04-17T19:39:34.150Z,98764.31
2023-04-17T19:42:06.713Z,98764.22
2023-04-17T19:44:39.704Z,98761.03
2023-04-17T19:47:12.132Z,98762.84
2023-04-17T19:49:45.166Z,98760.91
2023-04-17T19:52:17.079Z,98756.97
2023-04-17T19:54:51.212Z,98754.97
2023-04-17T19:57:23.150Z,98752.31
2023-04-17T19:59:55.760Z,98758.16
2023-04-17T20:02:27.843Z,98748.81
2023-04-17T20:05:00.960Z,98742.34
2023-04-17T20:07:33.353Z,98740.84
2023-04-17T20:10:06.753Z,98743.38
2023-04-17T20:12:39.086Z,98740.25
2023-04-17T20:15:11.497Z,98742.56
2023-04-17T20:17:44.252Z,98743.72
2023-04-17T20:20:16.268Z,98738.81
2023-04-17T20:22:49.433Z,98743.91
2023-04-17T20:25:21.330Z,98753.03
2023-04-17T20:27:55.514Z,98748.53
2023-04-17T20:30:29.061Z,98741.28
2023-04-17T20:33:01.961Z,98741.84
2023-04-17T20:35:34.059Z,98735.19
2023-04-17T20:38:06.615Z,98741.09
2023-04-17T20:40:38.976Z,98732.63
2023-04-17T20:43:13.344Z,98743.06
2023-04-17T20:45:45.283Z,98738.31
2023-04-17T20:48:18.722Z,98732.94
2023-04-17T20:50:51.277Z,98731.56
2023-04-17T20:53:23.876Z,98731.47
2023-04-17T20:55:57.788Z,98732.28
2023-04-17T20:58:30.611Z,98727.03
2023-04-17T21:01:03.485Z,98716.59
2023-04-17T21:03:36.100Z,98716.63
2023-04-17T21:06:08.164Z,98719.28
2023-04-17T21:08:40.897Z,98717.97
2023-04-17T21:11:12.777Z,98726.47
2023-04-17T21:13:45.813Z,98725.03
2023-04-17T21:16:18.129Z,98719.66
2023-04-17T21:18:50.839Z,98721.09
2023-04-17T21:21:22.730Z,98714.59
2023-04-17T21:23:55.273Z,98720.22
2023-04-17T21:26:27.550Z,98712.94
2023-04-17T21:29:00.133Z,98711.09
2023-04-17T21:31:32.200Z,98716.78
2023-04-17T21:34:04.815Z,98708.94
2023-04-17T21:36:36.768Z,98712.78
2023-04-17T21:39:09.715Z,98714.88
2023-04-17T21:41:41.612Z,98708.13
2023-04-17T21:44:15.224Z,98711.34
2023-04-17T21:46:47.386Z,98707.38
2023-04-17T21:49:21.022Z,98706.44
2023-04-17T21:51:53.279Z,98708.38
2023-04-17T21:54:26.726Z,98705.72
2023-04-17T21:56:59.448Z,98698.41
2023-04-17T21:59:31.364Z,98701.66
2023-04-17T22:02:04.588Z,98698.94
2023-04-17T22:04:37.102Z,98692.00
2023-04-17T22:07:10.241Z,98694.75
2023-04-17T22:09:42.127Z,98694.56
2023-04-17T22:12:18.080Z,98687.88
2023-04-17T22:14:50.289Z,98689.19
2023-04-17T22:17:22.617Z,98692.63
2023-04-17T22:19:55.797Z,98686.56
2023-04-17T22:22:28.353Z,98685.59
2023-04-17T22:25:00.232Z,98688.59
2023-04-17T22:27:32.880Z,98687.22
2023-04-17T22:30:06.305Z,98674.88
2023-04-17T22:32:38.898Z,98685.44
2023-04-17T22:35:11.257Z,98683.66
2023-04-17T22:37:43.918Z,98673.25
2023-04-17T22:40:16.278Z,98676.75
2023-04-17T22:42:50.291Z,98676.41
2023-04-17T22:45:22.596Z,98674.53
2023-04-17T22:47:55.241Z,98668.72
2023-04-17T22:50:30.270Z,98677.34
2023-04-17T22:53:03.693Z,98676.72
2023-04-17T22:55:36.466Z,98679.41
2023-04-17T22:58:08.508Z,98678.13
2023-04-17T23:00:41.490Z,98678.75
2023-04-17T23:03:14.197Z,98672.22
2023-04-17T23:05:47.277Z,98675.47
2023-04-17T23:08:19.240Z,98668.84
2023-04-17T23:11:02.130Z,98666.72
2023-04-17T23:13:34.507Z,98668.00
2023-04-17T23:16:07.508Z,98663.94
2023-04-17T23:18:39.773Z,98662.53
2023-04-17T23:21:12.346Z,98662.41
2023-04-17T23:23:45.252Z,98660.38
2023-04-17T23:26:21.718Z,98664.22
2023-04-17T23:28:53.586Z,98659.56
2023-04-17T23:31:26.612Z,98656.69
2023-04-17T23:33:58.538Z,98667.22
2023-04-17T23:36:31.978Z,98651.00
2023-04-17T23:39:05.629Z,98653.09
2023-04-17T23:41:42.493Z,98652.50
2023-04-17T23:44:14.832Z,98657.19
2023-04-17T23:46:47.943Z,98652.03
2023-04-17T23:49:19.914Z,98646.13
2023-04-17T23:51:52.466Z,98638.78
2023-04-17T23:54:24.504Z,98639.28
2023-04-17T23:56:57.174Z,98638.03
2023-04-17T23:59:29.437Z,98630.13
